Time;durP1;ratioP1;P1;durP2;ratioP2;P2;SDS_P1;SDS_P2;PMS_P1;PMS_P2;Temp;Humidity;BMP_temperature;BMP_pressure;BME280_temperature;BME280_humidity;BME280_pressure;Samples;Min_cycle;Max_cycle;Signal;HPM_P1;HPM_P2
2022/02/09 00:07:27;;;;;;;4.57;3.60;;;9.00;99.90;;;;;;5063192;28;20185;-60
2022/02/09 00:09:53;;;;;;;5.72;3.45;;;9.00;99.90;;;;;;5066813;28;20219;-60
2022/02/09 00:12:28;;;;;;;7.27;3.13;;;8.90;99.90;;;;;;5062287;28;20177;-60
2022/02/09 00:20:38;;;;;;;5.73;3.77;;;8.50;99.90;;;;;;5072019;28;20207;-60
2022/02/09 01:38:06;;;;;;;4.70;3.72;;;8.90;99.90;;;;;;5062027;28;20196;-60
2022/02/09 01:41:46;;;;;;;6.50;4.18;;;8.90;99.90;;;;;;5064353;28;20206;-60
2022/02/09 01:57:15;;;;;;;4.68;3.63;;;9.00;99.90;;;;;;5061817;28;20557;-60
2022/02/09 01:59:43;;;;;;;6.07;3.78;;;8.90;99.90;;;;;;5057167;28;20205;-60
2022/02/09 02:02:08;;;;;;;7.03;3.45;;;8.80;99.90;;;;;;5063179;28;20260;-60
2022/02/09 02:04:34;;;;;;;3.20;2.90;;;9.00;99.90;;;;;;5063050;28;20309;-60
2022/02/09 02:07:05;;;;;;;6.57;3.90;;;9.10;99.90;;;;;;5066027;28;20475;-60
2022/02/09 02:09:35;;;;;;;6.53;3.80;;;9.10;99.90;;;;;;5061841;28;20315;-60
2022/02/09 02:12:11;;;;;;;4.78;2.85;;;8.80;99.90;;;;;;5054376;28;20923;-60
2022/02/09 02:17:11;;;;;;;4.90;3.77;;;8.80;99.90;;;;;;5062821;28;20181;-60
2022/02/09 02:19:44;;;;;;;3.55;2.67;;;8.60;99.90;;;;;;5063027;28;20255;-60
2022/02/09 02:29:59;;;;;;;4.87;2.97;;;8.90;99.90;;;;;;5061062;28;20284;-60
2022/02/09 03:14:12;;;;;;;6.67;3.47;;;8.90;99.90;;;;;;5059242;28;20296;-60
2022/02/09 03:16:43;;;;;;;9.05;4.35;;;9.10;99.90;;;;;;5062277;28;20187;-60
2022/02/09 03:19:49;;;;;;;4.75;3.00;;;9.00;99.90;;;;;;5054373;28;20710;-60
2022/02/09 03:44:18;;;;;;;3.67;2.60;;;8.80;99.90;;;;;;5066899;28;20692;-60
2022/02/09 03:49:53;;;;;;;4.47;2.70;;;9.10;99.90;;;;;;5063466;28;20232;-60
2022/02/09 03:52:48;;;;;;;3.33;2.40;;;8.90;99.90;;;;;;5057705;28;20181;-60
2022/02/09 03:55:22;;;;;;;4.15;3.30;;;9.10;99.90;;;;;;5070072;28;20249;-61
2022/02/09 03:57:48;;;;;;;3.35;3.05;;;9.00;99.90;;;;;;5054356;28;20189;-61
2022/02/09 04:00:15;;;;;;;7.50;5.40;;;8.90;99.90;;;;;;5067856;28;20205;-61
2022/02/09 04:02:45;;;;;;;3.03;2.72;;;9.10;99.90;;;;;;5055367;28;20201;-61
2022/02/09 04:05:11;;;;;;;7.50;2.80;;;9.00;99.90;;;;;;5060107;28;20288;-60
2022/02/09 04:07:37;;;;;;;3.70;2.20;;;8.90;99.90;;;;;;5061970;28;20659;-61
2022/02/09 04:10:06;;;;;;;2.83;2.57;;;9.00;99.90;;;;;;5060271;28;20446;-61
2022/02/09 04:12:51;;;;;;;5.18;3.55;;;9.00;99.90;;;;;;5056210;28;20189;-60
2022/02/09 04:39:26;;;;;;;2.95;2.10;;;9.10;99.90;;;;;;5059348;28;20204;-60
2022/02/09 04:44:39;;;;;;;4.05;2.90;;;9.20;99.90;;;;;;5059081;28;20197;-60
2022/02/09 04:58:13;;;;;;;3.17;2.60;;;9.40;99.90;;;;;;5067175;28;20181;-60
2022/02/09 05:25:13;;;;;;;4.10;2.20;;;8.80;99.90;;;;;;5057030;28;20241;-60
2022/02/09 05:30:13;;;;;;;4.30;2.80;;;8.70;99.90;;;;;;5065545;28;20181;-60
2022/02/09 05:32:39;;;;;;;2.50;2.20;;;9.00;99.90;;;;;;5057965;28;20209;-60
2022/02/09 05:35:05;;;;;;;3.60;2.70;;;8.80;99.90;;;;;;5062383;28;20449;-60
2022/02/09 05:37:31;;;;;;;8.38;5.35;;;9.00;99.90;;;;;;5062023;28;20197;-60
2022/02/09 05:39:56;;;;;;;7.17;3.70;;;8.90;99.90;;;;;;5063367;28;20255;-60
2022/02/09 05:42:22;;;;;;;3.50;3.03;;;9.00;99.90;;;;;;5058506;28;20174;-60
2022/02/09 05:44:48;;;;;;;3.47;3.00;;;9.00;99.90;;;;;;5062303;28;20199;-60
2022/02/09 05:50:09;;;;;;;3.45;2.40;;;8.90;99.90;;;;;;5057722;28;20192;-58
2022/02/09 05:57:54;;;;;;;5.10;3.10;;;8.70;99.90;;;;;;5058024;28;20209;-59
2022/02/09 06:00:20;;;;;;;3.38;2.72;;;8.50;99.90;;;;;;5061723;28;20282;-58
2022/02/09 06:02:46;;;;;;;4.43;2.97;;;9.00;99.90;;;;;;5063171;28;20526;-55
2022/02/09 06:05:13;;;;;;;4.25;2.60;;;8.70;99.90;;;;;;5063332;28;20197;-61
2022/02/09 06:07:40;;;;;;;4.68;2.75;;;8.50;99.90;;;;;;5062222;28;20174;-61
2022/02/09 06:10:14;;;;;;;4.45;3.15;;;8.50;99.90;;;;;;5057675;28;20185;-62
2022/02/09 06:12:54;;;;;;;7.45;3.17;;;8.70;99.90;;;;;;5062222;28;20221;-58
2022/02/09 06:20:50;;;;;;;5.85;3.60;;;8.70;99.90;;;;;;5063956;28;20266;-58
2022/02/09 06:23:15;;;;;;;3.15;2.50;;;8.30;99.90;;;;;;5064353;28;20183;-61
2022/02/09 06:25:41;;;;;;;4.60;2.83;;;8.60;99.90;;;;;;5062191;28;20205;-59
2022/02/09 06:28:06;;;;;;;5.90;2.83;;;8.60;99.90;;;;;;5055202;28;20180;-59
2022/02/09 06:30:32;;;;;;;6.37;3.33;;;8.70;99.90;;;;;;5062453;28;20181;-58
2022/02/09 06:32:58;;;;;;;7.87;3.13;;;8.50;99.90;;;;;;5058942;28;20223;-58
2022/02/09 06:35:23;;;;;;;4.80;3.20;;;9.20;99.90;;;;;;5065371;28;20220;-59
2022/02/09 06:37:49;;;;;;;5.20;2.80;;;8.90;99.90;;;;;;5063981;28;20180;-59
2022/02/09 06:40:17;;;;;;;4.10;3.40;;;8.90;99.90;;;;;;5052777;28;20272;-61
2022/02/09 06:42:43;;;;;;;5.82;4.05;;;8.60;99.90;;;;;;5060139;28;20444;-60
2022/02/09 06:45:17;;;;;;;5.38;3.30;;;8.50;99.90;;;;;;5065985;28;20681;-59
2022/02/09 06:47:43;;;;;;;8.77;4.53;;;8.40;99.90;;;;;;5058733;28;20264;-59
2022/02/09 06:50:16;;;;;;;4.83;3.00;;;8.40;99.90;;;;;;5057504;28;20428;-61
2022/02/09 06:52:46;;;;;;;7.80;3.70;;;8.30;99.90;;;;;;5064200;28;20444;-60
2022/02/09 06:55:21;;;;;;;8.73;3.85;;;8.50;99.90;;;;;;5047001;28;20197;-59
2022/02/09 07:00:17;;;;;;;5.18;4.35;;;8.70;99.90;;;;;;5076720;28;20212;-61
2022/02/09 07:02:43;;;;;;;3.95;3.00;;;8.40;99.90;;;;;;5060951;28;20217;-55
2022/02/09 07:05:10;;;;;;;5.57;3.20;;;8.40;99.90;;;;;;5056468;28;20229;-55
2022/02/09 07:07:36;;;;;;;5.80;3.70;;;8.30;99.90;;;;;;5063966;28;20177;-55
2022/02/09 07:10:04;;;;;;;8.57;3.60;;;8.30;99.90;;;;;;5063026;28;20301;-55
2022/02/09 07:12:29;;;;;;;4.50;3.53;;;8.10;99.90;;;;;;5058213;28;20189;-56
2022/02/09 07:14:55;;;;;;;6.40;3.60;;;8.30;99.90;;;;;;5064523;28;20266;-56
2022/02/09 07:17:20;;;;;;;9.43;3.77;;;8.20;99.90;;;;;;5053099;28;20272;-55
2022/02/09 07:20:09;;;;;;;5.70;3.10;;;7.70;99.90;;;;;;5049684;28;20675;-60
2022/02/09 07:22:37;;;;;;;8.18;3.65;;;8.10;99.90;;;;;;5058568;28;20186;-58
2022/02/09 07:25:12;;;;;;;5.78;3.38;;;7.80;99.90;;;;;;5058813;28;20197;-59
2022/02/09 07:27:51;;;;;;;5.03;3.20;;;7.70;99.90;;;;;;5056385;28;20172;-58
2022/02/09 07:30:22;;;;;;;6.85;4.80;;;7.60;99.90;;;;;;5063145;28;20341;-59
2022/02/09 07:32:55;;;;;;;7.63;3.28;;;7.20;99.90;;;;;;5055579;28;20180;-60
2022/02/09 07:35:22;;;;;;;4.30;3.90;;;7.70;99.90;;;;;;5064350;28;20319;-58
2022/02/09 07:37:48;;;;;;;5.03;4.00;;;7.40;99.90;;;;;;5058700;28;20388;-60
2022/02/09 07:40:15;;;;;;;8.60;4.40;;;7.50;99.90;;;;;;5052190;28;20251;-60
2022/02/09 07:42:51;;;;;;;6.13;3.40;;;7.60;99.90;;;;;;5063466;28;20709;-61
2022/02/09 07:52:49;;;;;;;7.57;4.65;;;7.60;99.90;;;;;;5065851;28;20196;-61
2022/02/09 07:55:15;;;;;;;5.15;3.92;;;7.40;99.90;;;;;;5067007;28;22147;-59
2022/02/09 07:57:40;;;;;;;8.23;4.37;;;7.40;99.90;;;;;;5061360;28;20293;-60
2022/02/09 08:00:08;;;;;;;6.47;4.47;;;7.70;99.90;;;;;;5058600;28;20210;-58
2022/02/09 08:02:34;;;;;;;8.27;4.18;;;7.40;99.90;;;;;;5053962;28;20294;-63
2022/02/09 08:05:00;;;;;;;5.13;4.00;;;7.70;99.90;;;;;;5063379;28;20670;-63
2022/02/09 08:07:27;;;;;;;5.30;3.90;;;7.70;99.90;;;;;;5056377;28;20516;-59
2022/02/09 08:09:55;;;;;;;13.60;5.10;;;7.70;99.90;;;;;;5062549;28;20300;-58
2022/02/09 08:12:54;;;;;;;6.07;4.88;;;7.90;99.90;;;;;;5065328;28;20279;-59
2022/02/09 08:26:40;;;;;;;5.75;3.95;;;7.60;99.90;;;;;;5052437;28;20641;-59
2022/02/09 08:29:04;;;;;;;4.70;3.70;;;8.00;99.90;;;;;;5062982;28;20185;-58
2022/02/09 08:34:09;;;;;;;4.32;3.45;;;7.80;99.90;;;;;;5063844;28;20627;-61
2022/02/09 08:36:35;;;;;;;4.32;3.65;;;7.90;99.90;;;;;;5063455;28;20543;-59
2022/02/09 08:39:00;;;;;;;5.33;3.60;;;8.00;99.90;;;;;;5057109;28;20205;-61
2022/02/09 08:41:26;;;;;;;6.50;4.00;;;8.10;99.90;;;;;;5064954;28;20802;-60
2022/02/09 08:43:52;;;;;;;16.80;3.53;;;8.40;99.90;;;;;;5068755;28;20211;-60
2022/02/09 08:46:18;;;;;;;5.33;3.40;;;8.40;99.90;;;;;;5062399;28;20505;-61
2022/02/09 08:48:45;;;;;;;4.93;3.38;;;8.40;99.90;;;;;;5053314;28;20185;-59
2022/02/09 08:51:10;;;;;;;6.45;3.35;;;8.30;99.90;;;;;;5059562;28;20196;-60
2022/02/09 08:53:36;;;;;;;7.97;5.53;;;8.40;99.90;;;;;;5068219;28;20264;-60
2022/02/09 08:56:05;;;;;;;6.10;4.13;;;8.60;99.90;;;;;;5065366;28;20627;-59
2022/02/09 08:58:31;;;;;;;4.13;3.72;;;8.90;99.90;;;;;;5071633;28;20264;-58
2022/02/09 09:01:07;;;;;;;3.67;3.38;;;8.70;99.90;;;;;;5052625;28;20204;-58
2022/02/09 09:03:42;;;;;;;6.40;3.20;;;8.80;99.90;;;;;;5058928;28;20562;-58
2022/02/09 09:06:09;;;;;;;3.83;2.60;;;8.90;99.90;;;;;;5064013;28;20225;-58
2022/02/09 09:08:48;;;;;;;10.32;3.92;;;8.90;99.90;;;;;;5058849;28;20206;-56
2022/02/09 09:57:57;;;;;;;4.47;2.60;;;16.90;86.10;;;;;;5052119;28;20269;-60
2022/02/09 10:01:20;;;;;;;3.50;2.28;;;17.20;78.20;;;;;;5064480;28;20501;-62
2022/02/09 10:32:01;;;;;;;2.95;2.50;;;17.90;74.70;;;;;;5066952;28;20250;-63
2022/02/09 10:34:27;;;;;;;3.30;2.40;;;17.10;74.70;;;;;;5054937;28;20257;-62
2022/02/09 10:37:00;;;;;;;2.60;2.30;;;16.30;77.90;;;;;;5067670;28;20265;-63
2022/02/09 10:39:57;;;;;;;2.88;2.60;;;16.70;78.10;;;;;;5072803;28;20224;-63
2022/02/09 10:42:46;;;;;;;3.20;2.28;;;16.40;77.50;;;;;;5068225;28;20173;-63
2022/02/09 10:45:30;;;;;;;4.22;2.53;;;17.10;76.10;;;;;;5062809;28;20707;-63
2022/02/09 10:47:56;;;;;;;3.47;2.53;;;17.60;74.50;;;;;;5057445;28;20189;-63
2022/02/09 10:50:27;;;;;;;5.47;2.90;;;17.90;72.90;;;;;;5050376;28;20189;-61
2022/02/09 10:52:57;;;;;;;3.58;2.80;;;18.50;71.70;;;;;;5055772;28;20197;-61
2022/02/09 10:55:46;;;;;;;3.33;2.40;;;18.30;72.30;;;;;;5058507;28;20575;-62
2022/02/09 10:58:15;;;;;;;4.90;2.45;;;18.80;71.50;;;;;;5055334;28;20189;-63
2022/02/09 11:00:46;;;;;;;3.22;2.38;;;18.40;70.30;;;;;;5054776;28;20208;-59
2022/02/09 11:03:23;;;;;;;4.50;2.70;;;17.80;70.90;;;;;;5051367;28;20214;-57
2022/02/09 11:05:50;;;;;;;4.05;2.30;;;17.70;74.70;;;;;;5060199;28;20572;-58
2022/02/09 11:08:18;;;;;;;4.65;3.70;;;18.10;76.30;;;;;;5069014;28;20189;-59
2022/02/09 11:10:44;;;;;;;5.53;2.65;;;19.10;72.00;;;;;;5060664;28;20181;-58
2022/02/09 11:13:12;;;;;;;4.22;2.50;;;18.90;71.10;;;;;;5060701;28;20189;-58
2022/02/09 11:15:39;;;;;;;5.78;2.60;;;19.30;70.40;;;;;;5060712;28;20647;-59
2022/02/09 11:18:08;;;;;;;2.58;2.10;;;18.10;69.90;;;;;;5056617;28;20231;-60
2022/02/09 11:21:02;;;;;;;1.95;1.75;;;17.80;72.00;;;;;;5067992;28;20279;-60
2022/02/09 11:23:55;;;;;;;7.82;2.65;;;18.60;69.80;;;;;;5062454;28;20246;-60
2022/02/09 11:26:34;;;;;;;4.40;2.65;;;19.20;69.40;;;;;;5054067;28;20575;-59
2022/02/09 11:40:41;;;;;;;3.05;2.35;;;18.60;69.40;;;;;;5060154;28;20259;-59
2022/02/09 11:43:29;;;;;;;4.55;2.92;;;18.90;68.20;;;;;;5078960;28;20581;-60
2022/02/09 11:46:20;;;;;;;5.30;2.80;;;18.10;70.20;;;;;;5057117;28;20185;-60
2022/02/09 12:11:20;;;;;;;2.05;1.67;;;17.20;74.70;;;;;;5068720;28;20215;-60
2022/02/09 12:14:23;;;;;;;2.22;1.90;;;17.20;75.20;;;;;;5058152;28;20193;-59
2022/02/09 12:19:12;;;;;;;2.17;1.50;;;17.20;74.20;;;;;;5054987;28;20638;-60
2022/02/09 12:24:34;;;;;;;4.07;2.40;;;17.60;73.80;;;;;;5068557;28;20209;-60
2022/02/09 12:27:03;;;;;;;4.75;2.30;;;17.60;74.10;;;;;;5058269;28;20667;-61
2022/02/09 12:29:37;;;;;;;4.55;2.63;;;17.30;74.60;;;;;;5067879;28;20292;-61
2022/02/09 12:32:24;;;;;;;4.05;2.00;;;17.20;75.50;;;;;;5065482;28;20188;-61
2022/02/09 12:34:55;;;;;;;5.05;3.00;;;17.20;75.50;;;;;;5069936;28;20203;-62
2022/02/09 12:37:22;;;;;;;7.13;3.00;;;16.70;76.00;;;;;;5066805;28;20670;-60
2022/02/09 12:40:00;;;;;;;4.45;3.55;;;16.40;77.70;;;;;;5057664;28;20202;-62
2022/02/09 12:42:33;;;;;;;5.20;3.15;;;16.50;77.50;;;;;;5062981;28;20238;-58
2022/02/09 12:45:04;;;;;;;5.68;3.33;;;16.20;77.40;;;;;;5067828;28;20223;-60
2022/02/09 12:47:50;;;;;;;3.72;2.80;;;16.40;77.80;;;;;;5058402;28;20220;-60
2022/02/09 12:50:24;;;;;;;3.50;2.80;;;16.30;77.60;;;;;;5060869;28;20205;-60
2022/02/09 12:52:52;;;;;;;4.47;2.78;;;16.20;80.00;;;;;;5060777;28;20182;-59
2022/02/09 12:55:20;;;;;;;4.20;2.60;;;16.20;78.50;;;;;;5062296;28;20200;-63
2022/02/09 12:57:53;;;;;;;4.05;2.88;;;16.20;79.70;;;;;;5069788;28;20189;-63
2022/02/09 13:00:30;;;;;;;5.75;2.63;;;16.00;79.60;;;;;;5060938;28;20510;-61
2022/02/09 13:03:02;;;;;;;3.70;2.75;;;15.90;81.60;;;;;;5055334;28;20227;-61
2022/02/09 13:05:29;;;;;;;8.25;3.88;;;15.70;81.20;;;;;;5059593;28;20292;-62
2022/02/09 13:07:56;;;;;;;4.30;3.22;;;15.60;81.60;;;;;;5067997;28;20247;-62
2022/02/09 13:10:40;;;;;;;4.35;2.75;;;15.40;81.90;;;;;;5062064;28;20193;-61
2022/02/09 13:13:26;;;;;;;7.15;2.70;;;15.60;82.10;;;;;;5057212;28;20193;-61
2022/02/09 13:16:23;;;;;;;4.13;3.30;;;15.90;82.00;;;;;;5066547;28;20242;-62
2022/02/09 13:19:08;;;;;;;8.95;3.40;;;16.00;81.40;;;;;;5048009;28;20192;-62
2022/02/09 14:12:38;;;;;;;3.22;2.95;;;14.80;85.10;;;;;;5058841;28;20292;-61
2022/02/09 14:15:33;;;;;;;5.75;2.47;;;14.90;86.50;;;;;;5060006;28;20657;-60
2022/02/09 14:52:58;;;;;;;4.57;2.47;;;14.70;87.50;;;;;;5064856;28;20609;-69
2022/02/09 14:55:31;;;;;;;7.68;2.63;;;14.50;87.70;;;;;;5061738;28;20571;-70
2022/02/09 14:58:07;;;;;;;2.40;2.20;;;14.30;87.50;;;;;;5063771;28;20193;-61
2022/02/09 15:00:37;;;;;;;3.28;2.08;;;14.40;88.50;;;;;;5059799;28;20216;-63
2022/02/09 15:06:20;;;;;;;5.82;2.63;;;14.60;88.20;;;;;;5050821;28;20216;-63
2022/02/09 15:24:03;;;;;;;7.30;3.85;;;14.10;90.60;;;;;;5050821;28;20216;-60
2022/02/09 15:26:29;;;;;;;7.78;2.03;;;14.00;90.10;;;;;;5054220;28;20220;-60
2022/02/09 15:28:56;;;;;;;3.90;2.30;;;14.10;90.10;;;;;;5053617;28;20220;-60
2022/02/09 15:31:46;;;;;;;4.28;2.83;;;14.00;90.90;;;;;;5060032;28;20181;-59
2022/02/09 15:34:18;;;;;;;5.55;3.15;;;13.80;91.10;;;;;;5054271;28;20233;-61
2022/02/09 15:36:57;;;;;;;6.90;3.38;;;14.00;91.20;;;;;;5057638;28;20256;-60
2022/02/09 15:39:27;;;;;;;3.40;2.65;;;13.20;91.30;;;;;;5049320;28;20209;-60
2022/02/09 15:58:33;;;;;;;5.10;3.08;;;13.60;91.90;;;;;;5053796;28;20253;-60
2022/02/09 16:07:25;;;;;;;4.47;2.65;;;13.50;92.10;;;;;;5059464;28;20195;-58
2022/02/09 16:09:35;;;;;;;8.98;3.53;;;13.30;92.20;;;;;;5063889;28;20718;-60
2022/02/09 16:22:50;;;;;;;7.57;5.60;;;12.90;93.40;;;;;;5064199;28;20226;-60
2022/02/09 16:33:23;;;;;;;3.10;2.80;;;12.00;94.10;;;;;;5058809;28;20297;-59
2022/02/09 16:46:36;;;;;;;6.38;3.53;;;12.00;95.50;;;;;;5052587;28;20197;-60
2022/02/09 16:49:10;;;;;;;3.95;2.30;;;11.80;95.90;;;;;;5058602;28;20193;-59
2022/02/09 16:51:51;;;;;;;5.90;2.22;;;11.80;95.90;;;;;;5053168;28;20180;-60
2022/02/09 17:18:50;;;;;;;3.83;3.20;;;10.80;99.00;;;;;;5056940;28;20292;-59
2022/02/09 17:21:17;;;;;;;5.40;3.25;;;10.50;99.20;;;;;;5069403;28;20205;-60
2022/02/09 17:23:43;;;;;;;4.53;3.15;;;10.40;99.70;;;;;;5057698;28;20185;-60
2022/02/09 17:26:12;;;;;;;3.22;2.70;;;10.40;99.90;;;;;;5058245;28;20614;-59
2022/02/09 17:28:42;;;;;;;6.43;3.65;;;10.20;99.90;;;;;;5064504;28;20319;-59
2022/02/09 17:36:39;;;;;;;5.63;3.47;;;10.00;99.90;;;;;;5068770;28;20188;-60
2022/02/09 17:55:48;;;;;;;12.77;4.10;;;9.30;99.90;;;;;;5067067;28;20216;-59
2022/02/09 17:58:17;;;;;;;5.70;4.00;;;9.50;99.90;;;;;;5056114;28;20441;-60
2022/02/09 18:00:43;;;;;;;6.72;3.92;;;9.40;99.90;;;;;;5065626;28;20249;-59
2022/02/09 18:03:09;;;;;;;7.57;4.10;;;9.20;99.90;;;;;;5061028;28;20180;-59
2022/02/09 18:08:06;;;;;;;7.70;3.93;;;9.00;99.90;;;;;;5062584;28;20318;-59
2022/02/09 18:29:28;;;;;;;6.18;3.70;;;8.60;99.90;;;;;;5060245;28;20524;-60
2022/02/09 18:42:57;;;;;;;7.55;4.20;;;8.50;99.90;;;;;;5059040;28;21520;-59
2022/02/09 18:45:39;;;;;;;11.18;6.97;;;8.20;99.90;;;;;;5068067;28;20197;-61
2022/02/09 18:48:16;;;;;;;9.10;5.47;;;8.10;99.90;;;;;;5056741;28;20181;-59
2022/02/09 19:02:01;;;;;;;6.18;4.65;;;7.80;99.90;;;;;;5058428;28;20196;-60
2022/02/09 19:26:20;;;;;;;7.47;4.40;;;7.80;99.90;;;;;;5064038;28;20227;-59
2022/02/09 19:29:20;;;;;;;11.07;5.70;;;8.10;99.90;;;;;;5057805;28;20288;-59
2022/02/09 19:32:08;;;;;;;7.10;5.43;;;7.40;99.90;;;;;;5066406;28;20274;-59
2022/02/09 19:45:52;;;;;;;8.77;5.68;;;7.50;99.90;;;;;;5057093;28;20273;-59
2022/02/09 19:48:20;;;;;;;7.50;5.03;;;6.90;99.90;;;;;;5060383;28;20181;-60
2022/02/09 19:51:03;;;;;;;9.73;5.45;;;7.30;99.90;;;;;;5074497;28;20174;-59
2022/02/09 19:53:41;;;;;;;8.40;5.68;;;7.20;99.90;;;;;;5067892;28;20293;-59
2022/02/09 19:56:19;;;;;;;7.22;5.03;;;7.40;99.90;;;;;;5066909;28;20212;-60
2022/02/09 19:58:58;;;;;;;7.18;5.82;;;7.20;99.90;;;;;;5061802;28;20216;-59
2022/02/09 20:01:28;;;;;;;9.55;5.63;;;7.30;99.90;;;;;;5068317;28;20677;-59
2022/02/09 20:03:54;;;;;;;6.00;4.95;;;7.10;99.90;;;;;;5051404;28;20613;-61
2022/02/09 20:06:19;;;;;;;8.10;4.63;;;7.30;99.90;;;;;;5067996;28;20302;-60
2022/02/09 20:08:45;;;;;;;10.63;5.70;;;6.90;99.90;;;;;;5066434;28;20169;-59
2022/02/09 20:11:15;;;;;;;12.80;5.90;;;6.80;99.90;;;;;;5061195;28;20247;-60
2022/02/09 20:13:42;;;;;;;7.53;5.45;;;6.80;99.90;;;;;;5069954;28;20227;-60
2022/02/09 20:16:07;;;;;;;6.28;5.68;;;7.00;99.90;;;;;;5068444;28;20185;-60
2022/02/09 20:18:33;;;;;;;9.27;5.97;;;6.90;99.90;;;;;;5063485;28;20223;-59
2022/02/09 20:21:03;;;;;;;9.23;5.50;;;6.50;99.90;;;;;;5064777;28;20574;-59
2022/02/09 20:23:31;;;;;;;8.65;6.35;;;6.60;99.90;;;;;;5064717;28;20184;-60
2022/02/09 20:25:58;;;;;;;8.90;6.00;;;6.70;99.90;;;;;;5061207;28;20189;-60
2022/02/09 20:28:24;;;;;;;10.10;5.95;;;6.50;99.90;;;;;;5066643;28;20355;-61
2022/02/09 20:30:59;;;;;;;6.80;5.30;;;6.70;99.90;;;;;;5073774;28;20270;-59
2022/02/09 20:33:32;;;;;;;6.28;5.22;;;6.80;99.90;;;;;;5062020;28;20263;-60
2022/02/09 20:35:58;;;;;;;6.55;4.97;;;6.60;99.90;;;;;;5066849;28;20176;-61
2022/02/09 20:38:27;;;;;;;7.65;5.65;;;6.50;99.90;;;;;;5070268;28;20197;-60
2022/02/09 20:40:57;;;;;;;6.88;5.32;;;6.70;99.90;;;;;;5061889;28;20217;-59
2022/02/09 20:43:24;;;;;;;8.43;5.63;;;6.40;99.90;;;;;;5069954;28;20535;-59
2022/02/09 20:45:54;;;;;;;7.55;6.38;;;6.80;99.90;;;;;;5072858;28;20204;-61
2022/02/09 20:48:25;;;;;;;9.77;5.65;;;6.70;99.90;;;;;;5061533;28;20177;-61
2022/02/09 20:50:57;;;;;;;6.40;5.30;;;6.50;99.90;;;;;;5069760;28;20723;-59
2022/02/09 20:53:24;;;;;;;6.50;5.72;;;6.40;99.90;;;;;;5073780;28;20214;-58
2022/02/09 20:55:50;;;;;;;10.63;5.28;;;6.40;99.90;;;;;;5058060;28;20208;-59
2022/02/09 20:58:17;;;;;;;9.27;5.30;;;6.70;99.90;;;;;;5061158;28;20198;-59
2022/02/09 21:05:56;;;;;;;5.65;4.95;;;6.60;99.90;;;;;;5071884;28;20213;-60
2022/02/09 21:16:17;;;;;;;10.43;5.20;;;6.30;99.90;;;;;;5071743;28;20226;-59
2022/02/09 21:49:23;;;;;;;8.20;4.82;;;5.80;99.90;;;;;;5067771;28;20184;-60
2022/02/09 21:52:54;;;;;;;5.13;4.63;;;5.60;99.90;;;;;;5072663;28;20233;-61
2022/02/09 22:00:37;;;;;;;9.27;4.28;;;6.00;99.90;;;;;;5066375;28;20211;-59
2022/02/09 22:19:31;;;;;;;6.90;5.40;;;5.50;99.90;;;;;;5058094;28;20182;-60
2022/02/09 22:48:37;;;;;;;8.50;5.13;;;5.60;99.90;;;;;;5067587;28;20546;-58
2022/02/09 22:56:50;;;;;;;6.50;5.18;;;5.50;99.90;;;;;;5046701;28;20208;-58
2022/02/09 22:59:59;;;;;;;9.83;5.37;;;5.00;99.90;;;;;;5048320;28;20217;-60
2022/02/09 23:02:19;;;;;;;7.75;4.53;;;5.50;99.90;;;;;;5055792;28;20188;-59
2022/02/09 23:05:00;;;;;;;4.85;4.35;;;5.60;99.90;;;;;;5084591;28;20193;-58
2022/02/09 23:07:40;;;;;;;4.53;4.13;;;5.50;99.90;;;;;;5066344;28;20265;-60
2022/02/09 23:10:16;;;;;;;8.77;5.28;;;5.70;99.90;;;;;;5074858;28;20195;-59
2022/02/09 23:12:56;;;;;;;5.00;4.50;;;5.60;99.90;;;;;;5057869;28;20249;-58
2022/02/09 23:21:15;;;;;;;6.28;4.53;;;6.00;99.90;;;;;;5064319;28;20207;-60
2022/02/09 23:24:06;;;;;;;8.02;5.18;;;5.10;99.90;;;;;;5065790;28;20187;-58
2022/02/09 23:27:08;;;;;;;5.57;4.25;;;5.10;99.90;;;;;;5074353;28;20195;-58
